Time;durP1;ratioP1;P1;durP2;ratioP2;P2;SDS_P1;SDS_P2;PMS_P1;PMS_P2;Temp;Humidity;BMP_temperature;BMP_pressure;BME280_temperature;BME280_humidity;BME280_pressure;Samples;Min_cycle;Max_cycle;Signal;HPM_P1;HPM_P2
2021/07/05 00:00:25;;;;;;;1.60;1.50;;;;;;;22.20;100.00;97177.38;5066940;28;20752;-63
2021/07/05 00:02:52;;;;;;;1.80;1.70;;;;;;;22.19;100.00;97184.16;5067160;28;20235;-60
2021/07/05 00:05:18;;;;;;;1.70;1.60;;;;;;;22.15;100.00;97168.72;5067860;28;20708;-60
2021/07/05 00:07:48;;;;;;;1.60;1.50;;;;;;;22.19;100.00;97178.19;5033573;28;20660;-63
2021/07/05 00:10:17;;;;;;;1.70;1.60;;;;;;;22.20;100.00;97177.38;5068405;28;20258;-61
2021/07/05 00:12:47;;;;;;;1.80;1.70;;;;;;;22.20;100.00;97173.09;5052142;28;20689;-63
2021/07/05 00:15:15;;;;;;;1.67;1.50;;;;;;;22.19;100.00;97173.06;5069646;28;20200;-63
2021/07/05 00:17:41;;;;;;;1.70;1.60;;;;;;;22.19;100.00;97175.63;5069886;28;20494;-59
2021/07/05 00:20:08;;;;;;;1.70;1.60;;;;;;;22.19;100.00;97175.63;5069486;28;20224;-62
2021/07/05 00:22:35;;;;;;;1.60;1.50;;;;;;;22.18;100.00;97176.47;5070304;28;20328;-60
2021/07/05 00:25:02;;;;;;;1.60;1.50;;;;;;;22.19;100.00;97179.06;5051954;28;20279;-61
2021/07/05 00:27:28;;;;;;;1.90;1.40;;;;;;;22.19;100.00;97180.72;5070725;28;20311;-62
2021/07/05 00:29:55;;;;;;;1.57;1.47;;;;;;;22.19;100.00;97184.16;5072938;28;20223;-58
2021/07/05 00:32:21;;;;;;;1.53;1.43;;;;;;;22.19;100.00;97189.28;5073980;28;20287;-60
2021/07/05 00:34:48;;;;;;;1.70;1.60;;;;;;;22.20;100.00;97195.28;5073886;28;20204;-59
2021/07/05 00:37:15;;;;;;;1.90;1.80;;;;;;;22.19;100.00;97204.66;5073311;28;20200;-63
2021/07/05 00:39:41;;;;;;;1.43;1.33;;;;;;;22.19;100.00;97193.53;5073132;28;20243;-61
2021/07/05 00:42:08;;;;;;;1.60;1.50;;;;;;;22.18;100.00;97194.38;5072503;28;20204;-60
2021/07/05 00:44:35;;;;;;;1.70;1.60;;;;;;;22.17;100.00;97187.53;5055793;28;20199;-60
2021/07/05 00:47:02;;;;;;;1.90;1.67;;;;;;;22.18;100.00;97177.34;5056058;28;20240;-60
2021/07/05 00:49:29;;;;;;;2.10;1.40;;;;;;;22.19;100.00;97180.72;5073143;28;20226;-59
2021/07/05 00:52:04;;;;;;;1.57;1.47;;;;;;;22.19;100.00;97171.38;5074041;28;20200;-61
2021/07/05 00:54:31;;;;;;;1.50;1.40;;;;;;;22.18;100.00;97177.34;5055625;28;20287;-59
2021/07/05 00:56:57;;;;;;;2.03;1.70;;;;;;;22.15;100.00;97161.91;5073520;28;20291;-60
2021/07/05 00:59:24;;;;;;;1.60;1.50;;;;;;;21.60;100.00;97064.28;5071602;28;20279;-65
2021/07/05 01:01:51;;;;;;;1.70;1.60;;;;;;;22.17;100.00;97157.66;5070063;28;20660;-60
2021/07/05 01:04:17;;;;;;;1.70;1.60;;;;;;;22.17;100.00;97173.03;5071696;28;20729;-60
2021/07/05 01:06:44;;;;;;;1.63;1.53;;;;;;;22.18;100.00;97176.47;5071128;28;20228;-61
2021/07/05 01:09:10;;;;;;;1.40;1.20;;;;;;;22.16;100.00;97171.31;5072786;28;20307;-60
2021/07/05 01:11:37;;;;;;;2.07;1.50;;;;;;;22.17;100.00;97180.69;5072863;28;20251;-61
2021/07/05 01:14:03;;;;;;;1.50;1.40;;;;;;;22.16;100.00;97178.97;5072583;28;20203;-62
2021/07/05 01:16:30;;;;;;;1.53;1.43;;;;;;;22.17;100.00;97169.63;5071292;28;20238;-60
2021/07/05 01:18:58;;;;;;;1.50;1.40;;;;;;;22.17;100.00;97164.50;5072868;28;20196;-60
2021/07/05 01:21:24;;;;;;;1.60;1.50;;;;;;;22.16;100.00;97166.19;5055720;28;20641;-60
2021/07/05 01:23:51;;;;;;;2.17;1.60;;;;;;;22.17;100.00;97167.06;5072764;28;20568;-60
2021/07/05 01:26:18;;;;;;;1.60;1.50;;;;;;;22.16;100.00;97173.88;5053449;28;20204;-64
2021/07/05 01:28:44;;;;;;;1.60;1.50;;;;;;;22.14;100.00;97167.00;5072364;28;20251;-61
2021/07/05 01:31:11;;;;;;;1.50;1.40;;;;;;;22.17;100.00;97169.63;5072669;28;20649;-62
2021/07/05 01:33:37;;;;;;;1.53;1.43;;;;;;;22.16;100.00;97171.31;5073268;28;20231;-60
2021/07/05 01:36:04;;;;;;;1.63;1.53;;;;;;;21.56;100.00;97078.69;5071648;28;20554;-60
2021/07/05 01:38:31;;;;;;;1.50;1.40;;;;;;;22.17;100.00;97169.63;5072781;28;20228;-62
2021/07/05 01:41:00;;;;;;;1.60;1.50;;;;;;;21.97;100.00;97137.63;5072502;28;20259;-60
2021/07/05 01:43:28;;;;;;;1.60;1.50;;;;;;;22.17;100.00;97164.50;5053951;28;20201;-61
2021/07/05 01:45:54;;;;;;;1.60;1.50;;;;;;;22.17;100.00;97167.91;5072275;28;20321;-60
2021/07/05 01:48:21;;;;;;;1.27;1.27;;;;;;;22.16;100.00;97168.75;5072427;28;20250;-63
2021/07/05 01:50:48;;;;;;;1.50;1.40;;;;;;;22.17;100.00;97173.03;5054796;28;20247;-60
2021/07/05 01:53:14;;;;;;;1.73;1.60;;;;;;;22.17;100.00;97167.91;5072040;28;20228;-60
2021/07/05 01:55:41;;;;;;;1.67;1.47;;;;;;;22.16;100.00;97165.31;5034923;28;20259;-59
2021/07/05 01:58:08;;;;;;;1.70;1.60;;;;;;;22.12;100.00;97160.97;5071528;28;20228;-62
2021/07/05 02:00:36;;;;;;;1.53;1.43;;;;;;;22.17;100.00;97157.66;5054686;28;20262;-60
2021/07/05 02:03:03;;;;;;;1.43;1.33;;;;;;;22.17;100.00;97173.03;5070957;28;20198;-59
2021/07/05 02:05:30;;;;;;;1.43;1.33;;;;;;;22.17;100.00;97167.06;5071011;28;20232;-59
2021/07/05 02:07:57;;;;;;;1.60;1.50;;;;;;;22.13;100.00;97152.44;5072336;28;20307;-59
2021/07/05 02:10:25;;;;;;;1.70;1.60;;;;;;;22.17;100.00;97161.94;5053954;28;20295;-60
2021/07/05 02:12:53;;;;;;;1.60;1.50;;;;;;;22.12;100.00;97150.72;5054014;28;20231;-60
2021/07/05 02:15:20;;;;;;;1.53;1.43;;;;;;;22.06;100.00;97138.69;5037357;28;20233;-60
2021/07/05 02:17:47;;;;;;;1.53;1.43;;;;;;;22.17;100.00;97146.59;5054558;28;20228;-61
2021/07/05 02:20:16;;;;;;;2.07;1.53;;;;;;;22.17;100.00;97164.50;5071244;28;20258;-60
2021/07/05 02:22:43;;;;;;;2.57;1.57;;;;;;;22.14;100.00;97154.19;5071709;28;20262;-60
2021/07/05 02:25:11;;;;;;;1.50;1.40;;;;;;;22.10;100.00;97140.47;5071104;28;20204;-60
2021/07/05 02:27:39;;;;;;;1.57;1.33;;;;;;;22.14;100.00;97142.25;5037714;28;20240;-59
2021/07/05 02:30:08;;;;;;;1.53;1.43;;;;;;;22.13;100.00;97149.88;5071564;28;20233;-60
2021/07/05 02:32:35;;;;;;;2.37;1.47;;;;;;;22.14;100.00;97152.47;5071572;28;20242;-60
2021/07/05 02:35:04;;;;;;;1.77;1.53;;;;;;;22.15;100.00;97150.78;5071025;28;20231;-63
2021/07/05 02:37:30;;;;;;;1.50;1.40;;;;;;;22.11;100.00;97149.84;5071415;28;20228;-61
2021/07/05 02:39:57;;;;;;;1.43;1.33;;;;;;;22.15;100.00;97150.78;5043705;28;20248;-60
2021/07/05 02:42:23;;;;;;;1.50;1.40;;;;;;;22.14;100.00;97152.47;5053502;28;20231;-60
2021/07/05 02:44:50;;;;;;;1.40;1.30;;;;;;;22.15;100.00;97158.47;5070906;28;20231;-59
2021/07/05 02:47:16;;;;;;;1.70;1.60;;;;;;;22.13;100.00;97161.00;5071048;28;20729;-63
2021/07/05 02:49:43;;;;;;;1.50;1.40;;;;;;;22.15;100.00;97164.47;5052432;28;20271;-61
2021/07/05 02:52:10;;;;;;;1.50;1.40;;;;;;;22.15;100.00;97155.91;5071084;28;20254;-59
2021/07/05 02:54:36;;;;;;;1.40;1.30;;;;;;;22.15;100.00;97151.66;5070906;28;20238;-60
2021/07/05 02:57:05;;;;;;;1.50;1.40;;;;;;;22.16;100.00;97152.50;5070963;28;20258;-63
2021/07/05 02:59:32;;;;;;;1.57;1.47;;;;;;;22.13;100.00;97148.19;5070559;28;20242;-60
2021/07/05 03:01:58;;;;;;;1.50;1.40;;;;;;;22.12;100.00;97141.38;5047037;28;20319;-61
2021/07/05 03:04:25;;;;;;;1.47;1.37;;;;;;;22.15;100.00;97143.13;5049937;28;20197;-60
2021/07/05 03:06:51;;;;;;;1.43;1.33;;;;;;;22.15;100.00;97143.13;5070701;28;20236;-59
2021/07/05 03:09:18;;;;;;;1.33;1.27;;;;;;;22.15;100.00;97150.78;5050351;28;20661;-62
2021/07/05 03:11:44;;;;;;;1.53;1.43;;;;;;;22.13;100.00;97157.56;5070519;28;20220;-60
2021/07/05 03:14:11;;;;;;;1.40;1.30;;;;;;;22.16;100.00;97170.44;5069823;28;20239;-60
2021/07/05 03:16:38;;;;;;;1.60;1.50;;;;;;;22.16;100.00;97170.44;5070597;28;20228;-59
2021/07/05 03:19:05;;;;;;;1.47;1.30;;;;;;;22.16;100.00;97180.66;5070345;28;20239;-61
2021/07/05 03:21:31;;;;;;;2.20;1.60;;;;;;;22.16;100.00;97186.66;5070330;28;20256;-60
2021/07/05 03:23:58;;;;;;;1.40;1.30;;;;;;;22.15;100.00;97177.25;5070435;28;20453;-59
2021/07/05 03:26:25;;;;;;;1.50;1.40;;;;;;;22.16;100.00;97165.31;5070246;28;20227;-61
2021/07/05 03:28:52;;;;;;;1.60;1.50;;;;;;;22.15;100.00;97161.91;5069815;28;20258;-60
2021/07/05 03:31:18;;;;;;;1.47;1.37;;;;;;;22.10;100.00;97160.94;5064963;28;20255;-60
2021/07/05 03:33:46;;;;;;;1.10;1.10;;;;;;;22.14;100.00;97161.88;5050399;28;20200;-60
2021/07/05 03:36:12;;;;;;;1.40;1.30;;;;;;;22.16;100.00;97170.44;5070405;28;20199;-61
2021/07/05 03:38:39;;;;;;;1.50;1.40;;;;;;;22.15;100.00;97174.72;5069441;28;20239;-60
2021/07/05 03:41:05;;;;;;;1.53;1.43;;;;;;;22.15;100.00;97163.59;5070288;28;20240;-60
2021/07/05 03:43:32;;;;;;;2.67;1.30;;;;;;;22.14;100.00;97164.44;5069709;28;20684;-63
2021/07/05 03:45:58;;;;;;;1.57;1.47;;;;;;;22.15;100.00;97166.16;5065287;28;20299;-61
2021/07/05 03:48:25;;;;;;;1.47;1.37;;;;;;;22.14;100.00;97165.28;5066493;28;20235;-59
2021/07/05 03:50:52;;;;;;;1.40;1.30;;;;;;;22.15;100.00;97173.84;5065089;28;20225;-60
2021/07/05 03:53:18;;;;;;;1.40;1.30;;;;;;;22.14;100.00;97180.63;5069578;28;20383;-60
2021/07/05 03:55:45;;;;;;;1.40;1.30;;;;;;;22.14;100.00;97184.91;5069807;28;20294;-60
2021/07/05 03:58:12;;;;;;;1.57;1.47;;;;;;;22.14;100.00;97179.78;5070108;28;20275;-60
2021/07/05 04:00:38;;;;;;;2.13;1.50;;;;;;;22.15;100.00;97178.94;5065293;28;20255;-61
2021/07/05 04:03:06;;;;;;;1.53;1.43;;;;;;;22.15;100.00;97178.94;5067152;28;20200;-63
2021/07/05 04:05:33;;;;;;;1.60;1.50;;;;;;;22.14;100.00;97175.50;5068569;28;20243;-60
2021/07/05 04:07:59;;;;;;;3.13;1.60;;;;;;;22.15;100.00;97181.50;5066013;28;20455;-59
2021/07/05 04:10:26;;;;;;;2.07;1.57;;;;;;;22.14;100.00;97178.06;5065616;28;20306;-60
2021/07/05 04:12:53;;;;;;;1.50;1.40;;;;;;;22.13;100.00;97178.03;5067452;28;20235;-60
2021/07/05 04:15:19;;;;;;;2.57;1.60;;;;;;;22.13;100.00;97180.59;5048155;28;20696;-60
2021/07/05 04:17:46;;;;;;;1.57;1.47;;;;;;;22.15;100.00;97184.94;5040935;28;20254;-63
2021/07/05 04:20:19;;;;;;;1.63;1.53;;;;;;;22.02;100.00;97159.91;5038732;28;20652;-61
2021/07/05 04:22:45;;;;;;;1.40;1.30;;;;;;;22.10;100.00;97165.19;5044364;28;20795;-60
2021/07/05 04:25:14;;;;;;;1.93;1.37;;;;;;;22.16;100.00;97180.66;5034705;28;20680;-63
2021/07/05 04:27:41;;;;;;;1.70;1.50;;;;;;;22.17;100.00;97184.97;5069563;28;20200;-60
2021/07/05 04:30:08;;;;;;;4.20;1.50;;;;;;;22.17;100.00;97187.53;5066575;28;20246;-61
2021/07/05 04:32:38;;;;;;;2.60;1.43;;;;;;;22.16;100.00;97189.22;5059817;28;20257;-61
2021/07/05 04:35:10;;;;;;;1.43;1.33;;;;;;;22.17;100.00;97190.09;5048962;28;20195;-59
2021/07/05 04:37:39;;;;;;;1.80;1.47;;;;;;;22.18;100.00;97184.13;5065708;28;20261;-61
2021/07/05 04:40:08;;;;;;;1.40;1.30;;;;;;;22.16;100.00;97181.53;5047730;28;20753;-60
2021/07/05 04:42:35;;;;;;;2.87;1.40;;;;;;;22.18;100.00;97176.47;5065916;28;20295;-60
2021/07/05 04:45:02;;;;;;;1.30;1.20;;;;;;;22.18;100.00;97179.00;5066008;28;20210;-62
2021/07/05 04:47:33;;;;;;;1.83;1.27;;;;;;;22.16;100.00;97175.56;5068455;28;20207;-60
2021/07/05 04:49:59;;;;;;;2.47;1.27;;;;;;;22.18;100.00;97171.34;5064322;28;20303;-59
2021/07/05 04:52:26;;;;;;;1.40;1.30;;;;;;;22.18;100.00;97182.44;5069479;28;20208;-63
2021/07/05 04:54:54;;;;;;;1.60;1.50;;;;;;;22.18;100.00;97176.47;5066932;28;20298;-61
2021/07/05 04:57:20;;;;;;;1.70;1.23;;;;;;;22.18;100.00;97177.34;5069007;28;20231;-60
2021/07/05 04:59:47;;;;;;;1.47;1.33;;;;;;;21.99;100.00;97139.38;5049782;28;20708;-61
2021/07/05 05:02:20;;;;;;;2.03;1.20;;;;;;;22.18;100.00;97166.22;5061981;28;20274;-60
2021/07/05 05:04:47;;;;;;;1.50;1.40;;;;;;;22.17;100.00;97155.09;5037589;28;20204;-63
2021/07/05 05:07:13;;;;;;;2.07;1.60;;;;;;;22.18;100.00;97148.31;5066863;28;20660;-61
2021/07/05 05:09:40;;;;;;;1.50;1.40;;;;;;;22.17;100.00;97159.38;5068708;28;20749;-60
2021/07/05 05:12:06;;;;;;;1.20;1.20;;;;;;;22.17;100.00;97156.81;5067041;28;20228;-61
2021/07/05 05:14:33;;;;;;;1.40;1.30;;;;;;;22.17;100.00;97160.22;5072739;28;20631;-60
2021/07/05 05:17:00;;;;;;;1.40;1.30;;;;;;;22.18;100.00;97163.66;5055039;28;20234;-64
2021/07/05 05:19:26;;;;;;;1.50;1.40;;;;;;;22.17;100.00;97156.81;5070890;28;20572;-61
2021/07/05 05:21:53;;;;;;;1.50;1.37;;;;;;;22.17;100.00;97164.50;5072244;28;20289;-60
2021/07/05 05:24:20;;;;;;;1.50;1.40;;;;;;;22.18;100.00;97168.78;5071055;28;20605;-59
2021/07/05 05:26:46;;;;;;;1.50;1.40;;;;;;;22.17;100.00;97160.22;5072918;28;20629;-63
2021/07/05 05:29:13;;;;;;;1.47;1.37;;;;;;;22.03;100.00;97135.19;5071150;28;20663;-61
2021/07/05 05:31:39;;;;;;;1.17;1.17;;;;;;;22.15;100.00;97156.78;5054401;28;20307;-59
2021/07/05 05:34:06;;;;;;;1.50;1.40;;;;;;;22.17;100.00;97164.50;5071708;28;20200;-60
2021/07/05 05:36:32;;;;;;;1.40;1.30;;;;;;;22.17;100.00;97173.03;5071580;28;20235;-59
2021/07/05 05:39:01;;;;;;;1.50;1.30;;;;;;;22.16;100.00;97167.88;5070830;28;20220;-61
2021/07/05 05:41:28;;;;;;;1.67;1.57;;;;;;;22.00;100.00;97142.78;5046658;28;20630;-60
2021/07/05 05:43:59;;;;;;;1.23;1.20;;;;;;;22.17;100.00;97173.03;5054637;28;20250;-60
2021/07/05 05:46:28;;;;;;;3.00;1.40;;;;;;;22.18;100.00;97167.09;5071865;28;20192;-60
2021/07/05 05:48:55;;;;;;;1.37;1.27;;;;;;;22.18;100.00;97176.47;5071814;28;20640;-60
2021/07/05 05:51:23;;;;;;;1.50;1.40;;;;;;;22.18;100.00;97166.22;5070720;28;20251;-60
2021/07/05 05:53:49;;;;;;;1.40;1.30;;;;;;;22.19;100.00;97173.94;5071887;28;20196;-60
2021/07/05 05:56:16;;;;;;;1.10;1.10;;;;;;;22.18;100.00;97176.47;5070703;28;20292;-60
2021/07/05 05:58:43;;;;;;;1.50;1.40;;;;;;;22.17;100.00;97177.31;5063403;28;20287;-60
2021/07/05 06:01:09;;;;;;;1.40;1.30;;;;;;;22.19;100.00;97183.28;5062863;28;20307;-59
2021/07/05 06:03:36;;;;;;;1.40;1.30;;;;;;;22.19;100.00;97180.72;5070369;28;20242;-60
2021/07/05 06:06:03;;;;;;;2.03;1.40;;;;;;;22.18;100.00;97181.56;5069884;28;20196;-60
2021/07/05 06:08:29;;;;;;;1.30;1.30;;;;;;;22.20;100.00;97185.03;5070678;28;20638;-58
2021/07/05 06:10:56;;;;;;;1.10;1.10;;;;;;;22.20;100.00;97185.88;5070795;28;20303;-59
2021/07/05 06:13:22;;;;;;;1.40;1.30;;;;;;;22.21;100.00;97186.75;5070243;28;20196;-58
2021/07/05 06:15:49;;;;;;;1.60;1.50;;;;;;;22.20;100.00;97180.75;5069098;28;20284;-60
2021/07/05 06:18:16;;;;;;;1.60;1.50;;;;;;;22.12;100.00;97166.97;5067279;28;20199;-60
2021/07/05 06:20:42;;;;;;;1.33;1.27;;;;;;;22.22;100.00;97183.34;5031054;28;20251;-66
2021/07/05 06:23:25;;;;;;;1.37;1.27;;;;;;;22.22;100.00;97188.47;5067006;28;20699;-60
2021/07/05 06:25:55;;;;;;;1.60;1.50;;;;;;;22.21;100.00;97187.63;5065972;28;20200;-59
2021/07/05 06:28:22;;;;;;;3.10;1.30;;;;;;;22.03;100.00;97160.78;5032589;28;20693;-58
2021/07/05 06:30:49;;;;;;;1.90;1.40;;;;;;;22.21;100.00;97195.31;5031268;28;20261;-60
2021/07/05 06:33:17;;;;;;;1.47;1.37;;;;;;;22.21;100.00;97185.06;5050893;28;20637;-61
2021/07/05 06:35:46;;;;;;;1.10;1.10;;;;;;;22.22;100.00;97191.91;5069000;28;20231;-59
2021/07/05 06:38:13;;;;;;;1.50;1.40;;;;;;;22.22;100.00;97181.66;5051426;28;20204;-59
2021/07/05 06:40:40;;;;;;;1.30;1.20;;;;;;;22.23;100.00;97185.09;5049901;28;20216;-61
2021/07/05 06:43:07;;;;;;;1.43;1.33;;;;;;;22.23;100.00;97182.53;5069270;28;20231;-60
2021/07/05 06:45:34;;;;;;;1.37;1.27;;;;;;;22.23;100.00;97182.53;5068097;28;20632;-61
2021/07/05 06:48:01;;;;;;;1.40;1.30;;;;;;;22.18;100.00;97179.88;5062317;28;20200;-60
2021/07/05 06:50:28;;;;;;;1.40;1.30;;;;;;;22.23;100.00;97182.53;5062127;28;20216;-60
2021/07/05 06:52:54;;;;;;;1.40;1.30;;;;;;;22.22;100.00;97186.78;5066577;28;20201;-57
2021/07/05 06:55:21;;;;;;;1.40;1.30;;;;;;;22.23;100.00;97182.53;5066849;28;20232;-60
2021/07/05 06:57:48;;;;;;;3.23;1.30;;;;;;;22.22;100.00;97181.66;5068380;28;20660;-61
2021/07/05 07:00:20;;;;;;;1.30;1.20;;;;;;;22.06;100.00;97151.47;5063004;28;20208;-60
2021/07/05 07:02:47;;;;;;;2.03;1.40;;;;;;;22.18;100.00;97169.66;5049109;28;20598;-59
2021/07/05 07:05:15;;;;;;;1.47;1.37;;;;;;;22.23;100.00;97174.88;5047546;28;20238;-60
2021/07/05 07:07:44;;;;;;;1.73;1.27;;;;;;;22.22;100.00;97170.56;5067111;28;20247;-61
2021/07/05 07:10:13;;;;;;;1.37;1.27;;;;;;;22.22;100.00;97171.44;5066135;28;20238;-60
2021/07/05 07:12:40;;;;;;;1.50;1.40;;;;;;;22.22;100.00;97168.88;5068155;28;20656;-60
2021/07/05 07:15:07;;;;;;;1.30;1.20;;;;;;;22.23;100.00;97170.59;5049596;28;20639;-60
2021/07/05 07:20:03;;;;;;;1.47;1.37;;;;;;;22.23;100.00;97174.88;5065530;28;20216;-60
2021/07/05 07:22:29;;;;;;;1.40;1.30;;;;;;;22.23;100.00;97175.72;5065619;28;20639;-60
2021/07/05 07:24:56;;;;;;;1.33;1.23;;;;;;;22.20;100.00;97180.75;5048671;28;20232;-59
2021/07/05 07:27:23;;;;;;;1.17;1.17;;;;;;;22.24;100.00;97179.16;5066478;28;20200;-60
2021/07/05 07:29:49;;;;;;;1.30;1.20;;;;;;;22.23;100.00;97177.44;5029837;28;20764;-61
2021/07/05 07:32:16;;;;;;;1.27;1.10;;;;;;;22.24;100.00;97177.47;5069194;28;20208;-59
2021/07/05 07:34:43;;;;;;;1.40;1.30;;;;;;;22.24;100.00;97176.59;5067823;28;20228;-60
2021/07/05 07:37:09;;;;;;;1.80;1.40;;;;;;;22.23;100.00;97167.19;5069799;28;20638;-60
2021/07/05 07:39:44;;;;;;;1.57;1.10;;;;;;;22.23;100.00;97168.03;5068193;28;20296;-59
2021/07/05 07:42:11;;;;;;;2.13;1.20;;;;;;;22.24;100.00;97166.34;5069447;28;20228;-60
2021/07/05 07:44:37;;;;;;;2.43;1.20;;;;;;;22.23;100.00;97162.06;5068375;28;20732;-58
2021/07/05 07:47:04;;;;;;;1.37;1.27;;;;;;;22.22;100.00;97150.97;5068780;28;20230;-60
2021/07/05 07:49:32;;;;;;;1.57;1.30;;;;;;;22.22;100.00;97150.09;5068284;28;20256;-60
2021/07/05 07:52:00;;;;;;;1.40;1.30;;;;;;;22.20;100.00;97139.81;5069003;28;20354;-60
2021/07/05 07:54:27;;;;;;;1.30;1.20;;;;;;;22.22;100.00;97155.19;5048540;28;20288;-58
2021/07/05 07:56:53;;;;;;;1.40;1.33;;;;;;;22.22;100.00;97162.88;5050822;28;20223;-60
2021/07/05 07:59:20;;;;;;;1.30;1.20;;;;;;;22.22;100.00;97155.19;5067394;28;20215;-61
2021/07/05 08:01:47;;;;;;;1.20;1.20;;;;;;;22.21;100.00;97149.25;5066613;28;20220;-60
2021/07/05 08:04:14;;;;;;;1.40;1.33;;;;;;;22.22;100.00;97148.41;5067340;28;20200;-59
2021/07/05 08:06:41;;;;;;;1.37;1.27;;;;;;;22.22;100.00;97152.63;5050261;28;20196;-60
2021/07/05 08:09:08;;;;;;;1.40;1.30;;;;;;;22.20;100.00;97155.16;5047048;28;20670;-60
2021/07/05 08:11:35;;;;;;;1.73;1.30;;;;;;;22.20;100.00;97150.06;5051081;28;20220;-60
2021/07/05 08:14:03;;;;;;;1.37;1.27;;;;;;;21.68;100.00;97050.81;5050849;28;20254;-60
2021/07/05 08:16:30;;;;;;;1.40;1.30;;;;;;;22.21;100.00;97146.69;5049065;28;20228;-59
2021/07/05 08:18:57;;;;;;;2.00;1.27;;;;;;;22.22;100.00;97145.84;5067485;28;20196;-59
2021/07/05 08:21:23;;;;;;;1.40;1.30;;;;;;;22.23;100.00;97141.59;5043385;28;20244;-60
2021/07/05 08:23:50;;;;;;;1.30;1.10;;;;;;;22.22;100.00;97152.63;5068320;28;20232;-60
2021/07/05 08:26:18;;;;;;;2.73;1.40;;;;;;;22.22;100.00;97148.41;5067740;28;20200;-59
2021/07/05 08:28:45;;;;;;;1.40;1.30;;;;;;;22.22;100.00;97150.97;5067857;28;20579;-59
2021/07/05 08:31:12;;;;;;;4.33;1.30;;;;;;;22.21;100.00;97159.47;5067185;28;20260;-59
2021/07/05 08:33:39;;;;;;;1.40;1.30;;;;;;;22.23;100.00;97154.38;5068071;28;20302;-59
2021/07/05 08:36:06;;;;;;;1.10;1.10;;;;;;;22.22;100.00;97153.50;5067258;28;20227;-60
2021/07/05 08:38:33;;;;;;;1.20;1.10;;;;;;;22.18;100.00;97141.50;5036710;28;20239;-60
2021/07/05 08:41:00;;;;;;;1.83;1.20;;;;;;;22.22;100.00;97150.97;5055654;28;20252;-60
2021/07/05 08:43:27;;;;;;;1.23;1.20;;;;;;;22.22;100.00;97143.28;5048796;28;20220;-59
2021/07/05 08:46:04;;;;;;;1.60;1.20;;;;;;;22.22;100.00;97142.41;5067057;28;20234;-59
2021/07/05 08:48:33;;;;;;;1.80;1.27;;;;;;;22.23;100.00;97133.91;5055969;28;20238;-60
2021/07/05 08:51:01;;;;;;;1.40;1.30;;;;;;;22.22;100.00;97145.84;5054954;28;20223;-61
2021/07/05 08:53:28;;;;;;;1.30;1.20;;;;;;;22.22;100.00;97135.59;5070901;28;20204;-60
2021/07/05 08:55:55;;;;;;;1.50;1.40;;;;;;;22.22;100.00;97139.84;5070653;28;20303;-60
2021/07/05 08:58:21;;;;;;;1.37;1.27;;;;;;;22.23;100.00;97142.44;5070840;28;20208;-60
2021/07/05 09:00:48;;;;;;;1.30;1.20;;;;;;;22.22;100.00;97143.28;5054417;28;20240;-60
2021/07/05 09:03:14;;;;;;;2.40;1.20;;;;;;;22.23;100.00;97139.03;5054918;28;20196;-60
2021/07/05 09:05:41;;;;;;;1.73;1.30;;;;;;;22.23;100.00;97149.28;5072371;28;20224;-58
2021/07/05 09:08:11;;;;;;;1.73;1.20;;;;;;;22.22;100.00;97144.97;5071649;28;20224;-59
2021/07/05 09:10:52;;;;;;;1.10;1.00;;;;;;;22.19;100.00;97140.66;5071505;28;20663;-60
2021/07/05 09:13:23;;;;;;;1.87;1.30;;;;;;;22.21;100.00;97143.25;5037849;28;20748;-59
2021/07/05 09:15:56;;;;;;;1.20;1.20;;;;;;;22.21;100.00;97143.25;5048746;28;20208;-60
2021/07/05 09:18:25;;;;;;;1.23;1.20;;;;;;;22.21;100.00;97143.25;5054664;28;20731;-59
2021/07/05 09:20:53;;;;;;;1.40;1.30;;;;;;;22.21;100.00;97153.47;5071876;28;20216;-60
2021/07/05 09:23:19;;;;;;;1.27;1.10;;;;;;;22.19;100.00;97145.78;5071902;28;20231;-61
2021/07/05 09:25:48;;;;;;;1.10;1.10;;;;;;;22.21;100.00;97153.47;5071431;28;20253;-60
2021/07/05 09:28:16;;;;;;;1.43;1.17;;;;;;;22.21;100.00;97149.25;5072197;28;20231;-60
2021/07/05 09:30:51;;;;;;;1.17;1.10;;;;;;;22.17;100.00;97136.34;5071509;28;20244;-60
2021/07/05 09:33:23;;;;;;;1.30;1.20;;;;;;;22.15;100.00;97127.75;5072130;28;20237;-60
2021/07/05 09:35:52;;;;;;;1.50;1.40;;;;;;;22.22;100.00;97144.97;5049670;28;20530;-60
2021/07/05 09:38:31;;;;;;;1.13;1.10;;;;;;;22.22;100.00;97144.97;5053295;28;20235;-58
2021/07/05 09:40:59;;;;;;;1.20;1.17;;;;;;;22.18;100.00;97136.38;5072457;28;20224;-60
2021/07/05 09:43:27;;;;;;;1.40;1.30;;;;;;;22.21;100.00;97136.44;5071844;28;20235;-59
2021/07/05 09:45:54;;;;;;;1.50;1.40;;;;;;;22.16;100.00;97127.78;5054029;28;20204;-59
2021/07/05 09:48:25;;;;;;;1.70;1.10;;;;;;;22.21;100.00;97135.56;5040827;28;20204;-59
2021/07/05 09:50:59;;;;;;;1.20;1.20;;;;;;;22.21;100.00;97149.25;5053313;28;21020;-60
2021/07/05 09:53:42;;;;;;;1.10;1.10;;;;;;;22.21;100.00;97140.69;5071608;28;20234;-60
2021/07/05 09:56:28;;;;;;;1.47;1.37;;;;;;;22.20;100.00;97139.81;5048805;28;20200;-58
2021/07/05 09:58:56;;;;;;;1.43;1.17;;;;;;;22.18;100.00;97132.94;5065962;28;20200;-60
2021/07/05 10:01:42;;;;;;;1.20;1.10;;;;;;;22.21;100.00;97138.13;5070841;28;20212;-59
2021/07/05 10:04:23;;;;;;;1.10;1.10;;;;;;;22.19;100.00;97138.09;5046336;28;20216;-60
2021/07/05 10:06:50;;;;;;;1.10;1.10;;;;;;;22.20;100.00;97137.25;5046144;28;20587;-58
2021/07/05 10:09:31;;;;;;;1.30;1.20;;;;;;;22.21;100.00;97145.81;5066590;28;20235;-59
2021/07/05 10:12:23;;;;;;;1.30;1.20;;;;;;;22.15;100.00;97131.19;5070559;28;20224;-59
2021/07/05 10:15:19;;;;;;;1.13;1.13;;;;;;;22.20;100.00;97146.66;5049822;28;20232;-60
2021/07/05 10:17:48;;;;;;;1.10;1.10;;;;;;;22.21;100.00;97150.94;5035158;28;20662;-60
2021/07/05 10:20:19;;;;;;;1.23;1.23;;;;;;;22.19;100.00;97145.78;5032656;28;20220;-59
2021/07/05 10:22:47;;;;;;;3.80;1.20;;;;;;;22.20;100.00;97151.75;5064891;28;20224;-59
2021/07/05 10:25:14;;;;;;;1.30;1.20;;;;;;;21.55;100.00;97036.06;5068063;28;20204;-61
2021/07/05 10:27:41;;;;;;;2.63;1.20;;;;;;;22.19;100.00;97150.03;5069639;28;20243;-60
2021/07/05 10:30:09;;;;;;;1.10;1.10;;;;;;;22.19;100.00;97150.03;5069575;28;20281;-60
2021/07/05 10:32:36;;;;;;;1.30;1.13;;;;;;;22.16;100.00;97158.50;5066491;28;20239;-57
2021/07/05 10:35:04;;;;;;;1.10;1.10;;;;;;;22.18;100.00;97156.84;5070672;28;20200;-60
2021/07/05 10:38:02;;;;;;;1.20;1.10;;;;;;;22.19;100.00;97144.91;5069333;28;20635;-60
2021/07/05 10:40:40;;;;;;;1.00;1.00;;;;;;;22.19;100.00;97150.03;5023665;28;20307;-60
2021/07/05 10:43:14;;;;;;;1.03;1.03;;;;;;;22.02;100.00;97120.69;5052038;28;20291;-60
2021/07/05 10:45:48;;;;;;;1.20;1.00;;;;;;;22.19;100.00;97150.03;5051756;28;20279;-60
2021/07/05 10:48:36;;;;;;;1.37;1.10;;;;;;;22.20;100.00;97138.97;5069030;28;20204;-61
2021/07/05 10:51:03;;;;;;;1.13;1.03;;;;;;;22.20;100.00;97144.09;5051661;28;20612;-72
2021/07/05 10:53:33;;;;;;;1.37;1.17;;;;;;;22.19;100.00;97143.22;5034401;28;20291;-60
2021/07/05 10:56:00;;;;;;;1.10;1.10;;;;;;;22.19;100.00;97135.53;5052580;28;20207;-59
2021/07/05 10:58:31;;;;;;;1.20;1.10;;;;;;;22.19;100.00;97140.66;5069181;28;20309;-58
2021/07/05 11:01:02;;;;;;;1.17;1.17;;;;;;;22.20;100.00;97149.22;5069948;28;20236;-60
2021/07/05 11:03:39;;;;;;;1.10;1.10;;;;;;;22.20;100.00;97147.50;5062492;28;20792;-59
2021/07/05 11:06:26;;;;;;;1.33;1.10;;;;;;;22.19;100.00;97152.56;5069609;28;20224;-59
2021/07/05 11:08:53;;;;;;;1.20;1.20;;;;;;;22.20;100.00;97162.84;5054519;28;20231;-59
2021/07/05 11:11:33;;;;;;;1.30;1.20;;;;;;;22.02;100.00;97115.56;5068835;28;20276;-61
2021/07/05 11:14:23;;;;;;;1.10;1.10;;;;;;;22.21;100.00;97158.59;5056209;28;20329;-60
2021/07/05 11:16:53;;;;;;;2.33;1.10;;;;;;;22.21;100.00;97156.03;5070043;28;20192;-60
2021/07/05 11:19:30;;;;;;;1.30;1.20;;;;;;;22.20;100.00;97152.59;5051353;28;20211;-60
2021/07/05 11:21:58;;;;;;;1.20;1.10;;;;;;;22.20;100.00;97147.50;5069615;28;20331;-59
2021/07/05 11:24:40;;;;;;;1.10;1.10;;;;;;;22.21;100.00;97144.13;5069053;28;20238;-60
2021/07/05 11:27:25;;;;;;;1.30;1.20;;;;;;;22.21;100.00;97143.25;5069061;28;20295;-60
2021/07/05 11:29:52;;;;;;;1.17;1.10;;;;;;;22.22;100.00;97144.97;5064315;28;20319;-60
2021/07/05 11:34:46;;;;;;;0.93;0.93;;;;;;;22.06;100.00;97113.09;5042897;28;20311;-59